sensor_id;sensor_type;location;lat;lon;timestamp;P1;durP1;ratioP1;P2;durP2;ratioP2
17997;SDS011;9124;48.144;17.098;2023-06-10T00:03:22;55.88;;;38.17;;
17997;SDS011;9124;48.144;17.098;2023-06-10T00:07:49;61.17;;;38.05;;
17997;SDS011;9124;48.144;17.098;2023-06-10T00:12:15;59.47;;;39.15;;
17997;SDS011;9124;48.144;17.098;2023-06-10T00:16:43;51.47;;;37.28;;
17997;SDS011;9124;48.144;17.098;2023-06-10T00:21:10;57.50;;;37.83;;
17997;SDS011;9124;48.144;17.098;2023-06-10T00:25:39;70.90;;;40.08;;
17997;SDS011;9124;48.144;17.098;2023-06-10T00:30:06;73.82;;;41.40;;
17997;SDS011;9124;48.144;17.098;2023-06-10T00:34:32;68.68;;;40.22;;
17997;SDS011;9124;48.144;17.098;2023-06-10T00:38:59;73.18;;;42.35;;
17997;SDS011;9124;48.144;17.098;2023-06-10T00:43:26;71.38;;;39.80;;
17997;SDS011;9124;48.144;17.098;2023-06-10T00:47:52;67.43;;;40.22;;
17997;SDS011;9124;48.144;17.098;2023-06-10T00:52:19;68.40;;;40.58;;
17997;SDS011;9124;48.144;17.098;2023-06-10T00:56:47;63.78;;;39.35;;
17997;SDS011;9124;48.144;17.098;2023-06-10T01:01:15;63.70;;;39.15;;
17997;SDS011;9124;48.144;17.098;2023-06-10T01:05:42;71.47;;;38.25;;
17997;SDS011;9124;48.144;17.098;2023-06-10T01:10:12;64.70;;;38.63;;
17997;SDS011;9124;48.144;17.098;2023-06-10T01:14:55;65.50;;;39.20;;
17997;SDS011;9124;48.144;17.098;2023-06-10T01:19:23;72.53;;;41.55;;
17997;SDS011;9124;48.144;17.098;2023-06-10T01:23:50;82.63;;;43.67;;
17997;SDS011;9124;48.144;17.098;2023-06-10T01:32:50;71.90;;;42.40;;
17997;SDS011;9124;48.144;17.098;2023-06-10T01:37:19;70.00;;;41.83;;
17997;SDS011;9124;48.144;17.098;2023-06-10T01:41:48;62.45;;;40.17;;
17997;SDS011;9124;48.144;17.098;2023-06-10T01:46:16;73.70;;;42.85;;
17997;SDS011;9124;48.144;17.098;2023-06-10T01:50:45;70.88;;;42.20;;
17997;SDS011;9124;48.144;17.098;2023-06-10T01:55:12;72.90;;;43.35;;
17997;SDS011;9124;48.144;17.098;2023-06-10T01:59:39;65.88;;;41.47;;
17997;SDS011;9124;48.144;17.098;2023-06-10T02:04:08;64.43;;;42.03;;
17997;SDS011;9124;48.144;17.098;2023-06-10T02:08:34;68.38;;;43.00;;
17997;SDS011;9124;48.144;17.098;2023-06-10T02:13:01;64.30;;;42.67;;
17997;SDS011;9124;48.144;17.098;2023-06-10T02:17:27;70.35;;;41.72;;
17997;SDS011;9124;48.144;17.098;2023-06-10T02:21:54;74.22;;;43.38;;
17997;SDS011;9124;48.144;17.098;2023-06-10T02:26:21;70.85;;;42.35;;
17997;SDS011;9124;48.144;17.098;2023-06-10T02:30:49;66.28;;;41.00;;
17997;SDS011;9124;48.144;17.098;2023-06-10T02:35:17;68.85;;;41.20;;
17997;SDS011;9124;48.144;17.098;2023-06-10T02:39:44;65.18;;;40.13;;
17997;SDS011;9124;48.144;17.098;2023-06-10T02:44:11;58.35;;;39.35;;
17997;SDS011;9124;48.144;17.098;2023-06-10T02:48:42;55.35;;;37.13;;
17997;SDS011;9124;48.144;17.098;2023-06-10T02:53:11;57.95;;;37.58;;
17997;SDS011;9124;48.144;17.098;2023-06-10T02:57:43;58.97;;;36.63;;
17997;SDS011;9124;48.144;17.098;2023-06-10T03:02:12;50.75;;;36.70;;
17997;SDS011;9124;48.144;17.098;2023-06-10T03:06:44;53.85;;;37.03;;
17997;SDS011;9124;48.144;17.098;2023-06-10T03:11:19;61.70;;;38.83;;
17997;SDS011;9124;48.144;17.098;2023-06-10T03:15:47;62.47;;;39.85;;
17997;SDS011;9124;48.144;17.098;2023-06-10T03:20:17;62.75;;;38.50;;
17997;SDS011;9124;48.144;17.098;2023-06-10T03:24:45;61.10;;;37.80;;
17997;SDS011;9124;48.144;17.098;2023-06-10T03:29:13;46.95;;;33.90;;
17997;SDS011;9124;48.144;17.098;2023-06-10T03:33:40;41.33;;;30.92;;
17997;SDS011;9124;48.144;17.098;2023-06-10T03:38:07;41.28;;;30.90;;
17997;SDS011;9124;48.144;17.098;2023-06-10T03:42:34;37.53;;;29.92;;
17997;SDS011;9124;48.144;17.098;2023-06-10T03:47:00;37.92;;;30.25;;
17997;SDS011;9124;48.144;17.098;2023-06-10T03:51:29;40.13;;;29.15;;
17997;SDS011;9124;48.144;17.098;2023-06-10T03:55:56;41.20;;;28.42;;
17997;SDS011;9124;48.144;17.098;2023-06-10T04:00:26;30.55;;;27.02;;
17997;SDS011;9124;48.144;17.098;2023-06-10T04:04:52;32.75;;;27.77;;
17997;SDS011;9124;48.144;17.098;2023-06-10T04:09:19;33.95;;;26.52;;
17997;SDS011;9124;48.144;17.098;2023-06-10T04:13:45;33.47;;;27.40;;
17997;SDS011;9124;48.144;17.098;2023-06-10T04:18:13;26.23;;;23.50;;
17997;SDS011;9124;48.144;17.098;2023-06-10T04:22:39;24.77;;;22.25;;
17997;SDS011;9124;48.144;17.098;2023-06-10T04:27:06;25.45;;;21.55;;
17997;SDS011;9124;48.144;17.098;2023-06-10T04:31:32;24.50;;;22.20;;
17997;SDS011;9124;48.144;17.098;2023-06-10T04:36:00;26.42;;;24.02;;
17997;SDS011;9124;48.144;17.098;2023-06-10T04:40:29;21.42;;;19.52;;
17997;SDS011;9124;48.144;17.098;2023-06-10T04:44:56;19.90;;;18.30;;
17997;SDS011;9124;48.144;17.098;2023-06-10T04:49:24;23.88;;;21.15;;
17997;SDS011;9124;48.144;17.098;2023-06-10T04:53:50;22.52;;;20.40;;
17997;SDS011;9124;48.144;17.098;2023-06-10T04:58:17;24.15;;;21.63;;
17997;SDS011;9124;48.144;17.098;2023-06-10T05:02:43;22.85;;;20.42;;
17997;SDS011;9124;48.144;17.098;2023-06-10T05:07:10;22.75;;;20.63;;
17997;SDS011;9124;48.144;17.098;2023-06-10T05:11:37;20.27;;;18.45;;
17997;SDS011;9124;48.144;17.098;2023-06-10T05:16:04;21.77;;;19.95;;
17997;SDS011;9124;48.144;17.098;2023-06-10T05:20:30;20.95;;;19.20;;
17997;SDS011;9124;48.144;17.098;2023-06-10T05:24:57;20.73;;;19.02;;
17997;SDS011;9124;48.144;17.098;2023-06-10T05:29:23;20.38;;;18.80;;
17997;SDS011;9124;48.144;17.098;2023-06-10T05:33:50;19.17;;;17.48;;
17997;SDS011;9124;48.144;17.098;2023-06-10T05:38:16;18.27;;;16.98;;
17997;SDS011;9124;48.144;17.098;2023-06-10T05:42:42;18.52;;;16.90;;
17997;SDS011;9124;48.144;17.098;2023-06-10T05:47:08;18.25;;;16.95;;
17997;SDS011;9124;48.144;17.098;2023-06-10T05:51:35;18.70;;;17.20;;
17997;SDS011;9124;48.144;17.098;2023-06-10T05:56:02;18.67;;;17.10;;
17997;SDS011;9124;48.144;17.098;2023-06-10T06:00:29;17.02;;;15.77;;
17997;SDS011;9124;48.144;17.098;2023-06-10T06:04:55;16.02;;;14.82;;
17997;SDS011;9124;48.144;17.098;2023-06-10T06:09:22;14.45;;;13.30;;
17997;SDS011;9124;48.144;17.098;2023-06-10T06:13:48;15.57;;;14.48;;
17997;SDS011;9124;48.144;17.098;2023-06-10T06:18:15;15.88;;;14.82;;
17997;SDS011;9124;48.144;17.098;2023-06-10T06:22:41;17.20;;;15.73;;
17997;SDS011;9124;48.144;17.098;2023-06-10T06:27:07;15.73;;;14.38;;
17997;SDS011;9124;48.144;17.098;2023-06-10T06:31:33;16.65;;;15.35;;
17997;SDS011;9124;48.144;17.098;2023-06-10T06:36:00;15.00;;;13.98;;
17997;SDS011;9124;48.144;17.098;2023-06-10T06:40:27;13.88;;;13.07;;
17997;SDS011;9124;48.144;17.098;2023-06-10T06:44:53;15.00;;;13.98;;
17997;SDS011;9124;48.144;17.098;2023-06-10T06:49:20;14.75;;;13.40;;
17997;SDS011;9124;48.144;17.098;2023-06-10T06:53:48;14.70;;;13.50;;
17997;SDS011;9124;48.144;17.098;2023-06-10T06:58:17;15.57;;;14.20;;
17997;SDS011;9124;48.144;17.098;2023-06-10T07:02:43;21.27;;;13.88;;
17997;SDS011;9124;48.144;17.098;2023-06-10T07:07:10;15.10;;;14.00;;
17997;SDS011;9124;48.144;17.098;2023-06-10T07:11:38;13.85;;;12.68;;
17997;SDS011;9124;48.144;17.098;2023-06-10T07:16:05;12.43;;;11.57;;
17997;SDS011;9124;48.144;17.098;2023-06-10T07:20:31;10.93;;;9.82;;
17997;SDS011;9124;48.144;17.098;2023-06-10T07:24:57;11.50;;;10.90;;
17997;SDS011;9124;48.144;17.098;2023-06-10T07:29:24;11.60;;;10.50;;
17997;SDS011;9124;48.144;17.098;2023-06-10T07:33:50;11.95;;;11.15;;
17997;SDS011;9124;48.144;17.098;2023-06-10T07:38:16;12.60;;;11.57;;
17997;SDS011;9124;48.144;17.098;2023-06-10T07:42:43;11.00;;;10.27;;
17997;SDS011;9124;48.144;17.098;2023-06-10T07:47:09;10.00;;;9.18;;
17997;SDS011;9124;48.144;17.098;2023-06-10T07:51:36;10.32;;;9.75;;
17997;SDS011;9124;48.144;17.098;2023-06-10T07:56:02;10.40;;;9.68;;
17997;SDS011;9124;48.144;17.098;2023-06-10T08:00:29;10.13;;;9.35;;
17997;SDS011;9124;48.144;17.098;2023-06-10T08:04:55;8.88;;;8.27;;
17997;SDS011;9124;48.144;17.098;2023-06-10T08:09:21;9.52;;;8.63;;
17997;SDS011;9124;48.144;17.098;2023-06-10T08:13:48;10.60;;;9.90;;
17997;SDS011;9124;48.144;17.098;2023-06-10T08:18:15;10.90;;;9.65;;
17997;SDS011;9124;48.144;17.098;2023-06-10T08:22:41;11.00;;;10.30;;
17997;SDS011;9124;48.144;17.098;2023-06-10T08:27:07;13.25;;;12.35;;
17997;SDS011;9124;48.144;17.098;2023-06-10T08:31:33;13.55;;;12.35;;
17997;SDS011;9124;48.144;17.098;2023-06-10T08:36:00;13.30;;;12.23;;
17997;SDS011;9124;48.144;17.098;2023-06-10T08:40:27;11.13;;;10.52;;
17997;SDS011;9124;48.144;17.098;2023-06-10T08:44:54;12.27;;;11.27;;
17997;SDS011;9124;48.144;17.098;2023-06-10T08:49:21;10.93;;;10.32;;
17997;SDS011;9124;48.144;17.098;2023-06-10T08:53:52;11.85;;;10.90;;
17997;SDS011;9124;48.144;17.098;2023-06-10T08:58:26;11.75;;;10.75;;
17997;SDS011;9124;48.144;17.098;2023-06-10T09:02:53;11.80;;;10.90;;
17997;SDS011;9124;48.144;17.098;2023-06-10T09:07:21;14.00;;;11.68;;
17997;SDS011;9124;48.144;17.098;2023-06-10T09:11:47;14.57;;;10.95;;
17997;SDS011;9124;48.144;17.098;2023-06-10T09:16:14;9.98;;;9.35;;
17997;SDS011;9124;48.144;17.098;2023-06-10T09:20:41;11.23;;;10.48;;
17997;SDS011;9124;48.144;17.098;2023-06-10T09:25:09;11.50;;;10.52;;
17997;SDS011;9124;48.144;17.098;2023-06-10T09:29:47;12.15;;;11.23;;
17997;SDS011;9124;48.144;17.098;2023-06-10T09:34:16;12.32;;;11.52;;
17997;SDS011;9124;48.144;17.098;2023-06-10T09:38:42;12.05;;;11.23;;
17997;SDS011;9124;48.144;17.098;2023-06-10T09:43:09;13.50;;;12.35;;
17997;SDS011;9124;48.144;17.098;2023-06-10T09:47:38;13.73;;;12.43;;
17997;SDS011;9124;48.144;17.098;2023-06-10T09:52:05;14.52;;;13.15;;
17997;SDS011;9124;48.144;17.098;2023-06-10T09:56:32;18.17;;;16.50;;
17997;SDS011;9124;48.144;17.098;2023-06-10T10:01:09;19.55;;;17.85;;
17997;SDS011;9124;48.144;17.098;2023-06-10T10:05:36;18.67;;;17.23;;
17997;SDS011;9124;48.144;17.098;2023-06-10T10:10:02;22.38;;;20.40;;
17997;SDS011;9124;48.144;17.098;2023-06-10T10:14:29;20.40;;;18.70;;
17997;SDS011;9124;48.144;17.098;2023-06-10T10:19:00;20.50;;;18.88;;
17997;SDS011;9124;48.144;17.098;2023-06-10T10:23:32;20.55;;;18.92;;
17997;SDS011;9124;48.144;17.098;2023-06-10T10:28:09;22.25;;;19.95;;
17997;SDS011;9124;48.144;17.098;2023-06-10T10:32:43;21.75;;;20.05;;
17997;SDS011;9124;48.144;17.098;2023-06-10T10:37:14;20.38;;;18.75;;
17997;SDS011;9124;48.144;17.098;2023-06-10T10:41:41;22.00;;;20.10;;
17997;SDS011;9124;48.144;17.098;2023-06-10T10:46:12;18.58;;;17.38;;
17997;SDS011;9124;48.144;17.098;2023-06-10T10:50:40;17.88;;;16.25;;
17997;SDS011;9124;48.144;17.098;2023-06-10T10:55:12;18.08;;;16.48;;
17997;SDS011;9124;48.144;17.098;2023-06-10T11:04:22;16.42;;;14.93;;
17997;SDS011;9124;48.144;17.098;2023-06-10T11:08:52;16.10;;;14.85;;
17997;SDS011;9124;48.144;17.098;2023-06-10T11:13:19;16.02;;;14.93;;
17997;SDS011;9124;48.144;17.098;2023-06-10T11:22:58;13.25;;;12.30;;
17997;SDS011;9124;48.144;17.098;2023-06-10T11:27:24;13.25;;;12.30;;
17997;SDS011;9124;48.144;17.098;2023-06-10T11:31:51;12.45;;;11.70;;
17997;SDS011;9124;48.144;17.098;2023-06-10T11:36:17;11.52;;;10.73;;
17997;SDS011;9124;48.144;17.098;2023-06-10T11:40:50;11.30;;;10.30;;
17997;SDS011;9124;48.144;17.098;2023-06-10T11:45:17;11.75;;;11.05;;
17997;SDS011;9124;48.144;17.098;2023-06-10T11:49:43;10.88;;;9.52;;
17997;SDS011;9124;48.144;17.098;2023-06-10T11:54:10;10.13;;;9.25;;
17997;SDS011;9124;48.144;17.098;2023-06-10T11:58:37;8.57;;;7.97;;
17997;SDS011;9124;48.144;17.098;2023-06-10T12:03:12;7.30;;;6.90;;
17997;SDS011;9124;48.144;17.098;2023-06-10T12:07:39;6.53;;;6.13;;
17997;SDS011;9124;48.144;17.098;2023-06-10T12:12:05;7.93;;;7.35;;
17997;SDS011;9124;48.144;17.098;2023-06-10T12:16:35;10.20;;;9.60;;
17997;SDS011;9124;48.144;17.098;2023-06-10T12:21:01;10.52;;;10.02;;
17997;SDS011;9124;48.144;17.098;2023-06-10T12:25:29;10.63;;;9.85;;
17997;SDS011;9124;48.144;17.098;2023-06-10T12:29:56;11.30;;;10.63;;
17997;SDS011;9124;48.144;17.098;2023-06-10T12:34:35;8.20;;;7.60;;
17997;SDS011;9124;48.144;17.098;2023-06-10T12:39:05;11.18;;;10.50;;
17997;SDS011;9124;48.144;17.098;2023-06-10T12:43:32;13.32;;;12.45;;
17997;SDS011;9124;48.144;17.098;2023-06-10T12:53:00;15.45;;;14.15;;
17997;SDS011;9124;48.144;17.098;2023-06-10T12:57:36;17.70;;;15.93;;
17997;SDS011;9124;48.144;17.098;2023-06-10T13:02:02;13.88;;;12.52;;
17997;SDS011;9124;48.144;17.098;2023-06-10T13:06:29;13.00;;;12.00;;
17997;SDS011;9124;48.144;17.098;2023-06-10T13:10:58;12.75;;;11.75;;
17997;SDS011;9124;48.144;17.098;2023-06-10T13:15:25;12.30;;;11.20;;
17997;SDS011;9124;48.144;17.098;2023-06-10T13:19:52;12.07;;;11.32;;
17997;SDS011;9124;48.144;17.098;2023-06-10T13:24:18;12.75;;;11.95;;
17997;SDS011;9124;48.144;17.098;2023-06-10T13:28:46;13.35;;;12.55;;
17997;SDS011;9124;48.144;17.098;2023-06-10T13:33:12;13.07;;;12.27;;
17997;SDS011;9124;48.144;17.098;2023-06-10T13:37:41;15.07;;;13.70;;
17997;SDS011;9124;48.144;17.098;2023-06-10T13:42:07;14.88;;;13.88;;
17997;SDS011;9124;48.144;17.098;2023-06-10T13:46:34;16.15;;;14.93;;
17997;SDS011;9124;48.144;17.098;2023-06-10T13:51:01;15.38;;;14.38;;
17997;SDS011;9124;48.144;17.098;2023-06-10T13:55:27;15.43;;;13.98;;
17997;SDS011;9124;48.144;17.098;2023-06-10T13:59:53;14.95;;;13.95;;
17997;SDS011;9124;48.144;17.098;2023-06-10T14:04:21;15.02;;;13.50;;
17997;SDS011;9124;48.144;17.098;2023-06-10T14:08:48;15.15;;;13.63;;
17997;SDS011;9124;48.144;17.098;2023-06-10T14:13:14;14.75;;;13.68;;
17997;SDS011;9124;48.144;17.098;2023-06-10T14:17:41;13.57;;;12.68;;
17997;SDS011;9124;48.144;17.098;2023-06-10T14:22:07;13.50;;;12.55;;
17997;SDS011;9124;48.144;17.098;2023-06-10T14:26:34;13.02;;;12.00;;
17997;SDS011;9124;48.144;17.098;2023-06-10T14:31:00;13.68;;;12.80;;
17997;SDS011;9124;48.144;17.098;2023-06-10T14:35:27;14.00;;;12.90;;
17997;SDS011;9124;48.144;17.098;2023-06-10T14:39:53;9.70;;;9.10;;
17997;SDS011;9124;48.144;17.098;2023-06-10T14:44:19;9.38;;;8.82;;
17997;SDS011;9124;48.144;17.098;2023-06-10T14:48:46;8.73;;;7.95;;
17997;SDS011;9124;48.144;17.098;2023-06-10T14:53:12;9.10;;;8.40;;
17997;SDS011;9124;48.144;17.098;2023-06-10T14:57:39;10.48;;;9.60;;
17997;SDS011;9124;48.144;17.098;2023-06-10T15:02:05;10.02;;;9.38;;
17997;SDS011;9124;48.144;17.098;2023-06-10T15:06:31;10.55;;;9.95;;
17997;SDS011;9124;48.144;17.098;2023-06-10T15:10:58;11.57;;;10.85;;
17997;SDS011;9124;48.144;17.098;2023-06-10T15:15:26;8.77;;;8.02;;
17997;SDS011;9124;48.144;17.098;2023-06-10T15:19:53;10.00;;;9.40;;
17997;SDS011;9124;48.144;17.098;2023-06-10T15:24:19;10.43;;;9.50;;
17997;SDS011;9124;48.144;17.098;2023-06-10T15:28:46;10.23;;;9.52;;
17997;SDS011;9124;48.144;17.098;2023-06-10T15:33:13;7.07;;;6.68;;
17997;SDS011;9124;48.144;17.098;2023-06-10T15:37:40;5.28;;;4.88;;
17997;SDS011;9124;48.144;17.098;2023-06-10T15:42:06;5.25;;;3.80;;
17997;SDS011;9124;48.144;17.098;2023-06-10T15:46:32;4.20;;;3.80;;
17997;SDS011;9124;48.144;17.098;2023-06-10T15:51:00;5.05;;;3.63;;
17997;SDS011;9124;48.144;17.098;2023-06-10T15:55:26;4.20;;;3.90;;
17997;SDS011;9124;48.144;17.098;2023-06-10T15:59:54;4.82;;;4.35;;
17997;SDS011;9124;48.144;17.098;2023-06-10T16:04:21;4.55;;;4.15;;
17997;SDS011;9124;48.144;17.098;2023-06-10T16:08:47;7.50;;;3.83;;
17997;SDS011;9124;48.144;17.098;2023-06-10T16:13:14;4.70;;;4.30;;
17997;SDS011;9124;48.144;17.098;2023-06-10T16:17:40;5.65;;;4.45;;
17997;SDS011;9124;48.144;17.098;2023-06-10T16:22:08;4.85;;;4.38;;
17997;SDS011;9124;48.144;17.098;2023-06-10T16:26:35;6.82;;;5.05;;
17997;SDS011;9124;48.144;17.098;2023-06-10T16:31:01;5.05;;;4.70;;
17997;SDS011;9124;48.144;17.098;2023-06-10T16:35:28;4.40;;;4.00;;
17997;SDS011;9124;48.144;17.098;2023-06-10T16:39:55;3.90;;;3.60;;
17997;SDS011;9124;48.144;17.098;2023-06-10T16:44:22;3.45;;;3.15;;
17997;SDS011;9124;48.144;17.098;2023-06-10T16:48:48;3.63;;;3.33;;
17997;SDS011;9124;48.144;17.098;2023-06-10T16:53:14;3.00;;;2.83;;
17997;SDS011;9124;48.144;17.098;2023-06-10T16:57:41;3.25;;;2.70;;
17997;SDS011;9124;48.144;17.098;2023-06-10T17:02:07;2.83;;;2.63;;
17997;SDS011;9124;48.144;17.098;2023-06-10T17:06:33;3.17;;;2.90;;
17997;SDS011;9124;48.144;17.098;2023-06-10T17:11:00;5.38;;;3.88;;
17997;SDS011;9124;48.144;17.098;2023-06-10T17:15:27;4.03;;;3.72;;
17997;SDS011;9124;48.144;17.098;2023-06-10T17:19:54;3.88;;;3.58;;
17997;SDS011;9124;48.144;17.098;2023-06-10T17:24:21;7.10;;;4.00;;
17997;SDS011;9124;48.144;17.098;2023-06-10T17:28:47;6.30;;;4.25;;
17997;SDS011;9124;48.144;17.098;2023-06-10T17:33:13;4.93;;;3.95;;
17997;SDS011;9124;48.144;17.098;2023-06-10T17:37:40;4.70;;;4.35;;
17997;SDS011;9124;48.144;17.098;2023-06-10T17:42:06;6.55;;;6.10;;
17997;SDS011;9124;48.144;17.098;2023-06-10T17:46:33;5.30;;;5.00;;
17997;SDS011;9124;48.144;17.098;2023-06-10T17:50:59;5.35;;;5.03;;
17997;SDS011;9124;48.144;17.098;2023-06-10T17:55:26;7.63;;;5.53;;
17997;SDS011;9124;48.144;17.098;2023-06-10T17:59:53;6.18;;;5.78;;
17997;SDS011;9124;48.144;17.098;2023-06-10T18:04:20;7.25;;;6.55;;
17997;SDS011;9124;48.144;17.098;2023-06-10T18:08:47;6.78;;;6.28;;
17997;SDS011;9124;48.144;17.098;2023-06-10T18:13:13;7.40;;;6.90;;
17997;SDS011;9124;48.144;17.098;2023-06-10T18:17:40;8.80;;;8.15;;
17997;SDS011;9124;48.144;17.098;2023-06-10T18:22:06;8.40;;;7.45;;
17997;SDS011;9124;48.144;17.098;2023-06-10T18:26:32;7.75;;;7.28;;
17997;SDS011;9124;48.144;17.098;2023-06-10T18:30:59;7.97;;;7.38;;
17997;SDS011;9124;48.144;17.098;2023-06-10T18:35:26;9.40;;;8.63;;
17997;SDS011;9124;48.144;17.098;2023-06-10T18:39:53;9.32;;;8.73;;
17997;SDS011;9124;48.144;17.098;2023-06-10T18:44:20;9.50;;;8.88;;
17997;SDS011;9124;48.144;17.098;2023-06-10T18:48:46;10.85;;;9.48;;
17997;SDS011;9124;48.144;17.098;2023-06-10T18:53:15;10.38;;;9.75;;
17997;SDS011;9124;48.144;17.098;2023-06-10T18:57:41;11.23;;;10.13;;
17997;SDS011;9124;48.144;17.098;2023-06-10T19:02:08;10.93;;;10.00;;
17997;SDS011;9124;48.144;17.098;2023-06-10T19:06:34;15.48;;;9.10;;
17997;SDS011;9124;48.144;17.098;2023-06-10T19:11:03;9.50;;;8.80;;
17997;SDS011;9124;48.144;17.098;2023-06-10T19:15:31;9.27;;;8.57;;
17997;SDS011;9124;48.144;17.098;2023-06-10T19:19:58;9.93;;;9.07;;
17997;SDS011;9124;48.144;17.098;2023-06-10T19:24:24;11.35;;;10.65;;
17997;SDS011;9124;48.144;17.098;2023-06-10T19:28:51;12.57;;;11.05;;
17997;SDS011;9124;48.144;17.098;2023-06-10T19:33:17;11.13;;;10.18;;
17997;SDS011;9124;48.144;17.098;2023-06-10T19:37:44;11.60;;;10.52;;
17997;SDS011;9124;48.144;17.098;2023-06-10T19:42:11;11.65;;;10.70;;
17997;SDS011;9124;48.144;17.098;2023-06-10T19:46:38;12.15;;;11.23;;
17997;SDS011;9124;48.144;17.098;2023-06-10T19:51:06;12.18;;;11.05;;
17997;SDS011;9124;48.144;17.098;2023-06-10T19:55:32;12.45;;;11.50;;
17997;SDS011;9124;48.144;17.098;2023-06-10T19:59:59;12.65;;;11.68;;
17997;SDS011;9124;48.144;17.098;2023-06-10T20:04:25;12.43;;;11.73;;
17997;SDS011;9124;48.144;17.098;2023-06-10T20:08:52;13.35;;;12.30;;
17997;SDS011;9124;48.144;17.098;2023-06-10T20:13:18;13.82;;;12.70;;
17997;SDS011;9124;48.144;17.098;2023-06-10T20:17:45;12.43;;;11.70;;
17997;SDS011;9124;48.144;17.098;2023-06-10T20:22:12;12.35;;;11.40;;
17997;SDS011;9124;48.144;17.098;2023-06-10T20:26:38;12.50;;;11.60;;
17997;SDS011;9124;48.144;17.098;2023-06-10T20:31:05;13.45;;;12.23;;
17997;SDS011;9124;48.144;17.098;2023-06-10T20:35:32;11.93;;;10.98;;
17997;SDS011;9124;48.144;17.098;2023-06-10T20:39:58;11.77;;;10.80;;
17997;SDS011;9124;48.144;17.098;2023-06-10T20:44:24;11.63;;;10.65;;
17997;SDS011;9124;48.144;17.098;2023-06-10T20:48:51;11.95;;;11.05;;
17997;SDS011;9124;48.144;17.098;2023-06-10T20:53:17;12.13;;;10.88;;
17997;SDS011;9124;48.144;17.098;2023-06-10T20:57:43;12.32;;;8.73;;
17997;SDS011;9124;48.144;17.098;2023-06-10T21:02:10;8.85;;;7.90;;
17997;SDS011;9124;48.144;17.098;2023-06-10T21:06:36;9.52;;;8.82;;
17997;SDS011;9124;48.144;17.098;2023-06-10T21:11:03;8.98;;;8.23;;
17997;SDS011;9124;48.144;17.098;2023-06-10T21:15:29;9.13;;;8.52;;
17997;SDS011;9124;48.144;17.098;2023-06-10T21:19:55;9.07;;;8.00;;
17997;SDS011;9124;48.144;17.098;2023-06-10T21:24:21;9.65;;;8.95;;
17997;SDS011;9124;48.144;17.098;2023-06-10T21:28:48;9.25;;;8.65;;
17997;SDS011;9124;48.144;17.098;2023-06-10T21:33:14;9.80;;;9.07;;
17997;SDS011;9124;48.144;17.098;2023-06-10T21:37:41;9.45;;;8.50;;
17997;SDS011;9124;48.144;17.098;2023-06-10T21:42:07;9.48;;;8.75;;
17997;SDS011;9124;48.144;17.098;2023-06-10T21:46:34;9.02;;;8.43;;
17997;SDS011;9124;48.144;17.098;2023-06-10T21:51:00;9.25;;;8.23;;
17997;SDS011;9124;48.144;17.098;2023-06-10T21:55:27;10.13;;;8.70;;
17997;SDS011;9124;48.144;17.098;2023-06-10T21:59:53;11.98;;;9.65;;
17997;SDS011;9124;48.144;17.098;2023-06-10T22:04:20;11.77;;;10.85;;
17997;SDS011;9124;48.144;17.098;2023-06-10T22:08:46;11.57;;;10.50;;
17997;SDS011;9124;48.144;17.098;2023-06-10T22:13:13;11.52;;;10.27;;
17997;SDS011;9124;48.144;17.098;2023-06-10T22:17:41;10.93;;;9.82;;
17997;SDS011;9124;48.144;17.098;2023-06-10T22:22:08;11.93;;;10.75;;
17997;SDS011;9124;48.144;17.098;2023-06-10T22:26:35;11.95;;;11.00;;
17997;SDS011;9124;48.144;17.098;2023-06-10T22:31:01;9.95;;;9.05;;
17997;SDS011;9124;48.144;17.098;2023-06-10T22:35:27;11.75;;;9.35;;
17997;SDS011;9124;48.144;17.098;2023-06-10T22:39:54;10.55;;;9.85;;
17997;SDS011;9124;48.144;17.098;2023-06-10T22:44:20;10.63;;;9.88;;
17997;SDS011;9124;48.144;17.098;2023-06-10T22:48:47;9.75;;;8.93;;
17997;SDS011;9124;48.144;17.098;2023-06-10T22:53:13;12.77;;;11.52;;
17997;SDS011;9124;48.144;17.098;2023-06-10T22:57:40;12.68;;;11.73;;
17997;SDS011;9124;48.144;17.098;2023-06-10T23:02:06;12.88;;;11.65;;
17997;SDS011;9124;48.144;17.098;2023-06-10T23:06:32;11.50;;;10.38;;
17997;SDS011;9124;48.144;17.098;2023-06-10T23:10:59;12.20;;;11.40;;
17997;SDS011;9124;48.144;17.098;2023-06-10T23:15:25;13.70;;;11.82;;
17997;SDS011;9124;48.144;17.098;2023-06-10T23:19:52;16.02;;;14.75;;
17997;SDS011;9124;48.144;17.098;2023-06-10T23:24:24;13.55;;;12.63;;
17997;SDS011;9124;48.144;17.098;2023-06-10T23:28:54;19.40;;;17.05;;
17997;SDS011;9124;48.144;17.098;2023-06-10T23:33:20;18.92;;;17.02;;
17997;SDS011;9124;48.144;17.098;2023-06-10T23:37:48;18.55;;;17.00;;
17997;SDS011;9124;48.144;17.098;2023-06-10T23:47:06;16.40;;;15.02;;
17997;SDS011;9124;48.144;17.098;2023-06-10T23:51:32;20.13;;;18.50;;
17997;SDS011;9124;48.144;17.098;2023-06-10T23:55:59;19.98;;;17.98;;
